Time;durP1;ratioP1;P1;durP2;ratioP2;P2;SDS_P1;SDS_P2;PMS_P1;PMS_P2;Temp;Humidity;BMP_temperature;BMP_pressure;BME280_temperature;BME280_humidity;BME280_pressure;Samples;Min_cycle;Max_cycle;Signal;HPM_P1;HPM_P2
2023/12/21 00:01:49;;;;;;;;;;;12.40;52.10;;;12.70;54.82;99648.50;5052144;28;19987;-35
2023/12/21 00:04:17;;;;;;;;;;;12.40;52.00;;;12.73;55.23;99649.72;5041088;28;19980;-36
2023/12/21 00:06:45;;;;;;;;;;;12.40;51.90;;;12.76;54.75;99654.19;5031657;28;20343;-35
2023/12/21 00:09:13;;;;;;;;;;;12.50;51.80;;;12.79;54.31;99655.38;5032085;28;20454;-36
2023/12/21 00:11:41;;;;;;;;;;;12.60;51.70;;;12.77;54.61;99641.75;5032371;28;19931;-36
2023/12/21 00:14:10;;;;;;;;;;;12.60;51.50;;;12.81;54.83;99633.81;5032477;28;19947;-36
2023/12/21 00:16:38;;;;;;;;;;;12.60;51.50;;;12.81;55.13;99638.84;5031589;28;19931;-36
2023/12/21 00:19:07;;;;;;;;;;;12.60;51.50;;;12.79;54.78;99635.28;5032228;28;20020;-36
2023/12/21 00:21:35;;;;;;;;;;;12.60;51.60;;;12.78;55.01;99628.47;5031982;28;19925;-36
2023/12/21 00:24:03;;;;;;;;;;;12.70;51.70;;;12.83;54.36;99642.44;5031941;28;20432;-37
2023/12/21 00:26:31;;;;;;;;;;;12.70;51.60;;;12.82;54.34;99645.66;5031562;28;20020;-37
2023/12/21 00:28:59;;;;;;;;;;;12.60;51.50;;;12.79;54.78;99630.25;5031894;28;19948;-37
2023/12/21 00:31:27;;;;;;;;;;;12.60;51.50;;;12.78;54.96;99640.13;5032567;28;20284;-37
2023/12/21 00:33:55;;;;;;;;;;;12.60;51.50;;;12.76;54.93;99640.00;5032142;28;20024;-37
2023/12/21 00:36:24;;;;;;;;;;;12.60;51.60;;;12.71;54.04;99637.72;5043128;28;19978;-37
2023/12/21 00:38:52;;;;;;;;;;;12.60;51.70;;;12.68;55.13;99639.91;5052524;28;19925;-37
2023/12/21 00:41:20;;;;;;;;;;;12.50;51.60;;;12.62;54.74;99632.63;5052517;28;20057;-36
2023/12/21 00:43:48;;;;;;;;;;;12.50;51.80;;;12.59;54.95;99643.94;5056543;28;19932;-37
2023/12/21 00:46:16;;;;;;;;;;;12.50;51.90;;;12.53;55.07;99625.72;5055716;28;20016;-35
2023/12/21 00:48:43;;;;;;;;;;;12.40;52.00;;;12.52;54.73;99637.38;5055808;28;19929;-36
2023/12/21 00:51:11;;;;;;;;;;;12.40;52.10;;;12.51;55.76;99629.72;5055384;28;20364;-37
2023/12/21 00:53:41;;;;;;;;;;;12.30;52.20;;;12.46;55.86;99626.69;5055168;28;19992;-37
2023/12/21 00:56:08;;;;;;;;;;;12.30;52.40;;;12.44;55.68;99629.06;5054345;28;20467;-37
2023/12/21 00:58:36;;;;;;;;;;;12.30;52.50;;;12.39;55.72;99614.25;5055342;28;19975;-37
2023/12/21 01:01:05;;;;;;;;;;;12.30;52.50;;;12.39;56.60;99609.22;5055204;28;19971;-36
2023/12/21 01:03:33;;;;;;;;;;;12.20;52.70;;;12.34;56.01;99601.16;5054934;28;19925;-37
2023/12/21 01:06:01;;;;;;;;;;;12.20;52.80;;;12.36;55.79;99603.84;5054364;28;19929;-36
2023/12/21 01:08:29;;;;;;;;;;;12.20;53.00;;;12.34;56.73;99601.16;5054818;28;20371;-36
2023/12/21 01:10:58;;;;;;;;;;;12.20;52.90;;;12.31;55.73;99585.78;5055254;28;19931;-37
2023/12/21 01:13:26;;;;;;;;;;;12.20;52.90;;;12.34;55.86;99582.69;5054948;28;19931;-37
2023/12/21 01:15:54;;;;;;;;;;;12.20;53.10;;;12.33;56.94;99588.47;5054295;28;19928;-36
2023/12/21 01:18:22;;;;;;;;;;;12.20;53.20;;;12.34;56.50;99587.72;5054859;28;20342;-37
2023/12/21 01:20:50;;;;;;;;;;;12.20;52.90;;;12.36;56.12;99578.72;5054629;28;20407;-36
2023/12/21 01:23:18;;;;;;;;;;;12.20;53.00;;;12.37;56.05;99575.50;5055491;28;20156;-38
2023/12/21 01:25:46;;;;;;;;;;;12.20;52.80;;;12.38;56.23;99587.31;5056356;28;19925;-36
2023/12/21 01:28:15;;;;;;;;;;;12.20;52.90;;;12.41;55.86;99577.59;5055699;28;20304;-37
2023/12/21 01:30:43;;;;;;;;;;;12.20;52.90;;;12.45;55.72;99569.66;5055783;28;19924;-37
2023/12/21 01:33:11;;;;;;;;;;;12.20;52.90;;;12.47;55.80;99573.22;5057628;28;19925;-38
2023/12/21 01:35:39;;;;;;;;;;;12.30;52.80;;;12.51;56.08;99555.22;5056212;28;19975;-36
2023/12/21 01:38:07;;;;;;;;;;;12.30;52.80;;;12.53;55.64;99553.75;5057412;28;20354;-37
2023/12/21 01:40:35;;;;;;;;;;;12.30;53.40;;;12.53;56.04;99533.66;5058128;28;20354;-36
2023/12/21 01:43:03;;;;;;;;;;;12.30;52.70;;;12.56;55.46;99533.97;5054643;28;20013;-36
2023/12/21 01:45:32;;;;;;;;;;;12.30;52.70;;;12.57;55.78;99525.72;5054526;28;19924;-37
2023/12/21 01:48:01;;;;;;;;;;;12.30;52.70;;;12.58;55.79;99525.00;5053724;28;19925;-37
2023/12/21 01:50:29;;;;;;;;;;;12.30;52.70;;;12.61;55.49;99522.78;5054680;28;19947;-37
2023/12/21 01:52:57;;;;;;;;;;;12.40;52.70;;;12.60;56.03;99505.91;5054230;28;19924;-37
2023/12/21 01:55:27;;;;;;;;;;;12.40;52.50;;;12.64;55.11;99503.00;5053793;28;20007;-36
2023/12/21 01:57:55;;;;;;;;;;;12.40;52.40;;;12.73;54.84;99503.94;5053567;28;20347;-37
2023/12/21 02:00:23;;;;;;;;;;;12.40;52.40;;;12.77;55.09;99501.00;5054044;28;19933;-37
2023/12/21 02:02:52;;;;;;;;;;;12.50;52.40;;;12.79;54.65;99494.50;5054088;28;19928;-37
2023/12/21 02:05:20;;;;;;;;;;;12.60;52.30;;;12.80;55.38;99490.38;5053931;28;19931;-37
2023/12/21 02:07:48;;;;;;;;;;;12.60;52.20;;;12.81;55.25;99498.09;5053094;28;20347;-37
2023/12/21 02:10:16;;;;;;;;;;;12.60;52.10;;;12.82;54.74;99489.81;5053684;28;19925;-36
2023/12/21 02:12:44;;;;;;;;;;;12.60;52.10;;;12.80;54.72;99486.25;5053670;28;19929;-37
2023/12/21 02:15:12;;;;;;;;;;;12.70;52.00;;;12.84;54.78;99483.31;5053399;28;20015;-37
2023/12/21 02:17:40;;;;;;;;;;;12.70;51.90;;;12.85;54.63;99500.16;5053629;28;19925;-36
2023/12/21 02:20:10;;;;;;;;;;;12.70;51.90;;;12.84;54.47;99483.31;5053848;28;19948;-37
2023/12/21 02:22:38;;;;;;;;;;;12.70;51.90;;;12.80;54.56;99471.16;5054025;28;20015;-37
2023/12/21 02:25:08;;;;;;;;;;;12.70;51.90;;;12.82;55.13;99481.38;5053313;28;20358;-37
2023/12/21 02:27:35;;;;;;;;;;;12.70;52.00;;;12.77;55.04;99475.88;5052697;28;19931;-36
2023/12/21 02:30:04;;;;;;;;;;;12.60;51.90;;;12.74;55.36;99465.50;5053492;28;20019;-35
2023/12/21 02:32:32;;;;;;;;;;;12.60;52.10;;;12.70;55.94;99468.47;5053380;28;19954;-36
2023/12/21 02:35:00;;;;;;;;;;;12.60;52.20;;;12.63;55.36;99466.03;5053497;28;19924;-36
2023/12/21 02:37:29;;;;;;;;;;;12.50;52.30;;;12.62;56.24;99464.25;5052987;28;20040;-36
2023/12/21 02:39:56;;;;;;;;;;;12.50;52.30;;;12.56;55.59;99450.19;5053265;28;19932;-37
2023/12/21 02:42:26;;;;;;;;;;;12.40;52.30;;;12.55;55.54;99441.75;5053534;28;20339;-37
2023/12/21 02:44:54;;;;;;;;;;;12.40;52.40;;;12.53;55.42;99445.72;5053401;28;20425;-36
2023/12/21 02:47:21;;;;;;;;;;;12.40;52.60;;;12.50;55.70;99432.84;5052659;28;19947;-38
2023/12/21 02:49:49;;;;;;;;;;;12.30;52.80;;;12.47;56.52;99432.53;5053064;28;20338;-37
2023/12/21 02:52:20;;;;;;;;;;;12.30;52.80;;;12.44;56.61;99422.19;5053132;28;20006;-36
2023/12/21 02:54:48;;;;;;;;;;;12.30;52.90;;;12.42;56.66;99433.69;5052837;28;19971;-37
2023/12/21 02:57:16;;;;;;;;;;;12.30;53.10;;;12.40;56.08;99410.00;5052595;28;20015;-36
2023/12/21 02:59:45;;;;;;;;;;;12.30;53.10;;;12.40;56.11;99432.63;5052867;28;19929;-37
2023/12/21 03:02:13;;;;;;;;;;;12.20;53.10;;;12.36;56.97;99426.41;5052815;28;19978;-36
2023/12/21 03:04:41;;;;;;;;;;;12.20;53.80;;;12.38;55.82;99414.00;5039720;28;20020;-36
2023/12/21 03:07:09;;;;;;;;;;;12.20;53.20;;;12.37;56.72;99399.66;5031674;28;19925;-36
2023/12/21 03:09:37;;;;;;;;;;;12.20;53.20;;;12.37;56.74;99404.69;5032486;28;20455;-36
2023/12/21 03:12:05;;;;;;;;;;;12.20;53.30;;;12.38;56.36;99411.50;5032684;28;19925;-36
2023/12/21 03:14:33;;;;;;;;;;;12.20;53.30;;;12.40;56.07;99394.94;5032610;28;20411;-36
2023/12/21 03:17:02;;;;;;;;;;;12.20;53.10;;;12.40;56.70;99399.97;5032491;28;19925;-36
2023/12/21 03:19:31;;;;;;;;;;;12.20;53.10;;;12.44;56.75;99382.00;5032688;28;19925;-35
2023/12/21 03:21:59;;;;;;;;;;;12.30;53.10;;;12.46;55.95;99370.44;5032610;28;20437;-37
2023/12/21 03:24:27;;;;;;;;;;;12.30;53.10;;;12.48;55.59;99381.56;5032243;28;19940;-37
2023/12/21 03:26:55;;;;;;;;;;;12.30;53.10;;;12.51;56.65;99373.47;5031961;28;20012;-36
2023/12/21 03:29:23;;;;;;;;;;;12.30;53.00;;;12.52;56.46;99371.06;5032138;28;19925;-36
2023/12/21 03:31:52;;;;;;;;;;;12.30;52.90;;;12.54;56.78;99372.13;5032389;28;19925;-36
2023/12/21 03:34:20;;;;;;;;;;;12.30;53.00;;;12.55;56.06;99356.31;5032274;28;20324;-36
2023/12/21 03:36:48;;;;;;;;;;;12.30;53.00;;;12.56;56.34;99355.59;5031673;28;19933;-36
2023/12/21 03:39:16;;;;;;;;;;;12.30;53.10;;;12.55;56.04;99336.22;5031865;28;20448;-36
2023/12/21 03:41:44;;;;;;;;;;;12.30;53.00;;;12.59;56.04;99333.28;5032168;28;19929;-35
2023/12/21 03:44:12;;;;;;;;;;;12.40;53.10;;;12.63;56.33;99330.34;5031869;28;20000;-38
2023/12/21 03:46:40;;;;;;;;;;;12.40;52.90;;;12.60;56.23;99309.94;5031483;28;19972;-38
2023/12/21 03:49:08;;;;;;;;;;;12.40;52.80;;;12.67;55.74;99321.50;5032164;28;19929;-36
2023/12/21 03:51:37;;;;;;;;;;;12.40;52.70;;;12.68;55.30;99314.13;5032446;28;20021;-37
2023/12/21 03:54:05;;;;;;;;;;;12.40;52.70;;;12.70;55.30;99305.09;5032390;28;19944;-36
2023/12/21 03:56:33;;;;;;;;;;;12.50;52.70;;;12.73;55.86;99299.47;5031728;28;19925;-37
2023/12/21 03:59:01;;;;;;;;;;;12.50;52.60;;;12.79;56.03;99293.44;5032536;28;19932;-37
2023/12/21 04:01:29;;;;;;;;;;;12.60;52.50;;;12.80;54.84;99290.19;5032201;28;20499;-37
2023/12/21 04:03:57;;;;;;;;;;;12.60;52.40;;;12.85;55.87;99273.94;5043998;28;19925;-35
2023/12/21 04:06:25;;;;;;;;;;;12.60;52.30;;;12.86;55.18;99254.72;5049136;28;19999;-35
2023/12/21 04:08:55;;;;;;;;;;;12.70;52.40;;;12.85;54.97;99258.84;5052179;28;19931;-35
2023/12/21 04:11:22;;;;;;;;;;;12.70;52.30;;;12.90;54.76;99286.94;5051861;28;19931;-35
2023/12/21 04:13:51;;;;;;;;;;;12.70;52.20;;;12.89;55.02;99276.03;5052134;28;19925;-34
2023/12/21 04:16:18;;;;;;;;;;;12.70;52.10;;;12.89;54.87;99258.44;5051571;28;19928;-35
2023/12/21 04:18:46;;;;;;;;;;;12.70;52.00;;;12.88;54.77;99259.19;5052874;28;19979;-35
2023/12/21 04:21:14;;;;;;;;;;;12.70;52.00;;;12.84;55.58;99254.56;5055589;28;19932;-35
2023/12/21 04:23:42;;;;;;;;;;;12.70;52.20;;;12.83;56.04;99250.31;5055524;28;19975;-35
2023/12/21 04:26:18;;;;;;;;;;;12.70;52.20;;;12.79;55.50;99238.16;5054881;28;19964;-35
2023/12/21 04:28:46;;;;;;;;;;;12.60;52.20;;;12.76;55.50;99226.91;5055415;28;19925;-35
2023/12/21 04:31:18;;;;;;;;;;;12.60;52.30;;;12.70;55.78;99237.25;5055748;28;20039;-35
2023/12/21 04:33:46;;;;;;;;;;;12.60;52.30;;;12.67;56.03;99241.97;5062126;28;20003;-34
2023/12/21 04:36:15;;;;;;;;;;;12.50;52.50;;;12.63;55.94;99224.81;5062066;28;20380;-35
2023/12/21 04:38:42;;;;;;;;;;;12.50;52.50;;;12.59;55.97;99202.63;5063257;28;20002;-35
2023/12/21 04:41:12;;;;;;;;;;;12.50;52.60;;;12.56;55.36;99191.41;5062470;28;19992;-34
2023/12/21 04:43:39;;;;;;;;;;;12.40;52.80;;;12.53;56.46;99176.91;5062494;28;20003;-35
2023/12/21 04:46:07;;;;;;;;;;;12.40;52.90;;;12.49;56.55;99165.69;5059502;28;19978;-35
2023/12/21 04:48:34;;;;;;;;;;;12.30;52.80;;;12.45;55.97;99152.69;5055868;28;19928;-35
2023/12/21 04:51:03;;;;;;;;;;;12.30;53.10;;;12.45;56.36;99152.69;5055773;28;19925;-35
2023/12/21 04:53:31;;;;;;;;;;;12.30;53.20;;;12.44;56.84;99138.34;5054908;28;20434;-35
2023/12/21 04:55:59;;;;;;;;;;;12.30;53.40;;;12.42;56.76;99134.78;5054727;28;19924;-34
2023/12/21 04:58:28;;;;;;;;;;;12.30;53.60;;;12.37;56.25;99123.41;5055185;28;19993;-34
2023/12/21 05:00:56;;;;;;;;;;;12.30;53.50;;;12.40;57.18;99128.69;5055083;28;20408;-35
2023/12/21 05:03:24;;;;;;;;;;;12.30;53.60;;;12.40;56.80;99131.22;5054648;28;20311;-35
2023/12/21 05:05:52;;;;;;;;;;;12.20;53.50;;;12.38;57.75;99121.03;5054133;28;20300;-35
2023/12/21 05:08:20;;;;;;;;;;;12.20;53.70;;;12.40;57.11;99128.69;5054384;28;19925;-35
2023/12/21 05:10:48;;;;;;;;;;;12.20;53.60;;;12.39;56.90;99116.91;5054864;28;20023;-35
2023/12/21 05:13:16;;;;;;;;;;;12.20;53.60;;;12.41;56.88;99105.38;5054821;28;19932;-34
2023/12/21 05:15:45;;;;;;;;;;;12.20;53.70;;;12.43;56.91;99111.44;5054300;28;19932;-35
2023/12/21 05:18:14;;;;;;;;;;;12.30;53.60;;;12.46;57.28;99100.06;5054868;28;19924;-34
2023/12/21 05:20:42;;;;;;;;;;;12.30;53.60;;;12.49;56.99;99099.47;5054603;28;20027;-34
2023/12/21 05:23:10;;;;;;;;;;;12.30;53.50;;;12.51;56.74;99087.06;5054639;28;19925;-34
2023/12/21 05:25:38;;;;;;;;;;;12.30;53.50;;;12.53;56.80;99086.47;5054513;28;20372;-33
2023/12/21 05:28:06;;;;;;;;;;;12.30;53.40;;;12.55;57.01;99079.97;5055357;28;20324;-35
2023/12/21 05:30:34;;;;;;;;;;;12.30;53.50;;;12.58;56.71;99085.31;5055900;28;19955;-35
2023/12/21 05:33:04;;;;;;;;;;;12.30;53.60;;;12.57;56.86;99081.00;5055841;28;20438;-35
2023/12/21 05:35:32;;;;;;;;;;;12.40;53.60;;;12.59;56.24;99077.00;5055824;28;19928;-35
2023/12/21 05:38:00;;;;;;;;;;;12.40;53.50;;;12.60;56.45;99073.75;5055262;28;19931;-34
2023/12/21 05:40:28;;;;;;;;;;;12.40;53.60;;;12.62;56.33;99074.81;5054273;28;19971;-34
2023/12/21 05:42:56;;;;;;;;;;;12.40;53.40;;;12.63;56.01;99076.59;5053820;28;20347;-34
2023/12/21 05:45:24;;;;;;;;;;;12.40;53.30;;;12.65;56.64;99097.69;5053972;28;19947;-34
2023/12/21 05:47:58;;;;;;;;;;;12.40;53.30;;;12.72;56.23;99090.00;5053072;28;19932;-34
2023/12/21 05:50:27;;;;;;;;;;;12.40;53.20;;;12.75;55.59;99092.84;5053690;28;20384;-34
2023/12/21 05:52:55;;;;;;;;;;;12.50;53.00;;;12.79;55.58;99087.34;5054181;28;19925;-34
2023/12/21 05:55:23;;;;;;;;;;;12.50;52.90;;;12.82;55.74;99076.72;5053908;28;19924;-35
2023/12/21 05:57:51;;;;;;;;;;;12.60;52.90;;;12.86;55.81;99062.06;5053027;28;19925;-35
2023/12/21 06:00:20;;;;;;;;;;;12.60;52.70;;;12.85;55.69;99057.78;5053571;28;19931;-35
2023/12/21 06:02:48;;;;;;;;;;;12.60;52.70;;;12.88;55.69;99057.19;5053647;28;20008;-35
2023/12/21 06:05:17;;;;;;;;;;;12.70;52.60;;;12.85;55.91;99047.72;5053757;28;20346;-35
2023/12/21 06:07:47;;;;;;;;;;;12.70;52.70;;;12.86;55.81;99053.63;5052953;28;20012;-35
2023/12/21 06:10:15;;;;;;;;;;;12.70;52.60;;;12.85;56.31;99050.25;5053566;28;19925;-35
2023/12/21 06:12:43;;;;;;;;;;;12.70;52.60;;;12.84;55.63;99035.91;5045320;28;19947;-35
2023/12/21 06:15:11;;;;;;;;;;;12.70;52.60;;;12.67;56.01;98999.84;5053736;28;19932;-35
2023/12/21 06:17:39;;;;;;;;;;;12.70;53.20;;;12.81;55.61;99030.59;5052837;28;20303;-35
2023/12/21 06:20:09;;;;;;;;;;;12.70;52.60;;;12.61;55.25;99000.16;5053333;28;20113;-35
2023/12/21 06:22:37;;;;;;;;;;;12.60;52.70;;;12.78;55.99;99035.31;5053424;28;20115;-34
2023/12/21 06:25:07;;;;;;;;;;;12.60;52.60;;;12.74;56.41;99037.41;5053236;28;20078;-35
2023/12/21 06:27:35;;;;;;;;;;;12.60;52.80;;;12.70;55.99;99023.66;5052443;28;20024;-35
2023/12/21 06:30:04;;;;;;;;;;;12.50;52.80;;;12.66;56.33;99026.59;5052969;28;19925;-35
2023/12/21 06:32:32;;;;;;;;;;;12.50;52.90;;;12.62;55.77;99017.00;5053039;28;19971;-35
2023/12/21 06:35:00;;;;;;;;;;;12.50;53.00;;;12.58;56.38;99014.97;5052982;28;19978;-34
2023/12/21 06:37:28;;;;;;;;;;;12.40;53.00;;;12.56;56.67;99013.03;5052390;28;19931;-34
2023/12/21 06:39:57;;;;;;;;;;;12.40;53.30;;;12.52;56.72;99011.84;5053328;28;19928;-34
2023/12/21 06:42:26;;;;;;;;;;;12.40;53.40;;;12.50;56.59;99015.84;5042786;28;19968;-35
2023/12/21 06:44:54;;;;;;;;;;;12.40;53.60;;;12.47;56.92;99005.50;5032933;28;20013;-35
2023/12/21 06:47:23;;;;;;;;;;;12.40;53.70;;;12.43;57.02;98993.38;5032584;28;19925;-35
2023/12/21 06:49:51;;;;;;;;;;;12.30;53.80;;;12.43;57.09;98983.34;5032917;28;20324;-35
2023/12/21 06:52:21;;;;;;;;;;;12.30;54.00;;;12.41;57.51;98974.75;5032558;28;19925;-34
2023/12/21 06:54:49;;;;;;;;;;;12.30;54.00;;;12.40;57.52;98957.91;5032867;28;19925;-34
2023/12/21 06:57:17;;;;;;;;;;;12.20;54.00;;;12.38;57.23;98939.31;5032500;28;20031;-34
2023/12/21 06:59:46;;;;;;;;;;;12.20;54.10;;;12.39;57.41;98951.16;5044802;28;19928;-35
2023/12/21 07:02:14;;;;;;;;;;;12.20;54.20;;;12.39;56.99;98931.06;5052756;28;19925;-34
2023/12/21 07:04:42;;;;;;;;;;;12.20;54.20;;;12.39;56.90;98936.09;5052309;28;20015;-35
2023/12/21 07:07:10;;;;;;;;;;;12.20;54.20;;;12.39;57.17;98926.88;5051871;28;19986;-35
2023/12/21 07:09:38;;;;;;;;;;;12.20;54.20;;;12.40;58.01;98912.72;5033412;28;19929;-34
2023/12/21 07:12:06;;;;;;;;;;;12.20;54.10;;;12.43;57.74;98900.47;5032478;28;20462;-35
2023/12/21 07:14:34;;;;;;;;;;;12.30;54.20;;;12.46;57.18;98898.22;5032625;28;20019;-35
2023/12/21 07:17:04;;;;;;;;;;;12.30;54.10;;;12.49;57.26;98894.38;5031862;28;20012;-35
2023/12/21 07:19:32;;;;;;;;;;;12.30;54.10;;;12.51;57.45;98889.50;5034099;28;20016;-35
2023/12/21 07:22:00;;;;;;;;;;;12.30;54.70;;;12.53;57.40;98890.53;5052342;28;19940;-35
2023/12/21 07:24:28;;;;;;;;;;;12.30;54.60;;;12.56;56.46;98885.81;5034868;28;19925;-35
2023/12/21 07:26:56;;;;;;;;;;;12.30;54.00;;;12.58;57.04;98873.38;5032054;28;19972;-34
2023/12/21 07:29:24;;;;;;;;;;;12.30;54.20;;;12.58;57.16;98854.19;5032272;28;19925;-34
2023/12/21 07:31:52;;;;;;;;;;;12.40;54.10;;;12.61;57.24;98859.47;5032190;28;20024;-35
2023/12/21 07:34:21;;;;;;;;;;;12.40;54.10;;;12.63;56.62;98860.50;5032365;28;19925;-34
2023/12/21 07:36:49;;;;;;;;;;;12.40;54.00;;;12.65;57.48;98841.41;5031823;28;19929;-34
2023/12/21 07:39:17;;;;;;;;;;;12.40;54.10;;;12.67;56.72;98834.91;5032238;28;19947;-34
2023/12/21 07:41:48;;;;;;;;;;;12.40;53.90;;;12.68;56.94;98825.75;5044518;28;19978;-34
2023/12/21 07:44:16;;;;;;;;;;;12.50;53.90;;;12.69;57.57;98823.38;5052094;28;20419;-34
2023/12/21 07:46:44;;;;;;;;;;;12.50;53.90;;;12.72;56.89;98823.66;5051288;28;19929;-34
2023/12/21 07:49:12;;;;;;;;;;;12.50;53.80;;;12.75;57.38;98803.84;5051959;28;19943;-33
2023/12/21 07:51:42;;;;;;;;;;;12.50;53.70;;;12.78;56.27;98814.16;5052100;28;19925;-33
2023/12/21 07:54:12;;;;;;;;;;;12.50;53.70;;;12.76;56.80;98795.56;5055015;28;20027;-34
2023/12/21 07:56:40;;;;;;;;;;;12.60;53.60;;;12.82;56.02;98801.16;5055390;28;19947;-35
2023/12/21 07:59:08;;;;;;;;;;;12.60;53.40;;;12.81;56.49;98784.31;5056444;28;19929;-34
2023/12/21 08:01:36;;;;;;;;;;;12.60;53.40;;;12.80;57.18;98769.97;5056180;28;20027;-34
2023/12/21 08:04:04;;;;;;;;;;;12.60;53.40;;;12.80;55.94;98762.44;5055700;28;20343;-35
2023/12/21 08:06:32;;;;;;;;;;;12.60;53.40;;;12.80;56.79;98752.38;5055258;28;20454;-34
2023/12/21 08:09:01;;;;;;;;;;;12.60;53.50;;;12.81;56.40;98744.09;5055824;28;19968;-33
2023/12/21 08:11:29;;;;;;;;;;;12.60;53.50;;;12.80;57.00;98712.16;5055492;28;20387;-34
2023/12/21 08:13:58;;;;;;;;;;;12.60;53.40;;;12.79;56.84;98722.97;5055881;28;19929;-34
2023/12/21 08:16:26;;;;;;;;;;;12.60;53.30;;;12.79;56.00;98707.88;5055383;28;19925;-34
2023/12/21 08:18:54;;;;;;;;;;;12.60;53.20;;;12.78;57.14;98683.50;5055726;28;19929;-34
2023/12/21 08:21:23;;;;;;;;;;;12.60;53.20;;;12.73;56.25;98679.69;5055571;28;20388;-34
2023/12/21 08:23:51;;;;;;;;;;;12.60;53.40;;;12.71;56.97;98686.19;5055526;28;20015;-35
2023/12/21 08:26:21;;;;;;;;;;;12.60;53.50;;;12.69;56.76;98690.22;5054756;28;20399;-34
2023/12/21 08:28:49;;;;;;;;;;;12.50;53.50;;;12.62;56.60;98660.28;5055904;28;20295;-34
2023/12/21 08:31:24;;;;;;;;;;;12.50;53.60;;;12.61;57.12;98695.28;5055545;28;20296;-34
2023/12/21 08:33:52;;;;;;;;;;;12.50;53.80;;;12.58;57.97;98708.47;5055474;28;19928;-34
2023/12/21 08:36:20;;;;;;;;;;;12.40;53.90;;;12.56;56.83;98709.97;5054406;28;19935;-34
2023/12/21 08:38:48;;;;;;;;;;;12.40;54.00;;;12.50;57.49;98709.41;5056034;28;19971;-34
2023/12/21 08:41:16;;;;;;;;;;;12.40;54.20;;;12.52;57.96;98727.13;5056297;28;19925;-34
2023/12/21 08:43:46;;;;;;;;;;;12.40;54.20;;;12.49;57.57;98717.69;5056859;28;19932;-33
2023/12/21 08:46:14;;;;;;;;;;;12.30;54.20;;;12.47;57.78;98719.16;5055817;28;19925;-34
2023/12/21 08:48:42;;;;;;;;;;;12.30;54.40;;;12.46;58.13;98739.97;5055905;28;19924;-34
2023/12/21 08:51:09;;;;;;;;;;;12.30;54.60;;;12.42;58.43;98727.91;5055639;28;20020;-34
2023/12/21 08:53:37;;;;;;;;;;;12.30;54.50;;;12.45;58.15;98745.78;5056437;28;19925;-34
2023/12/21 08:56:06;;;;;;;;;;;12.30;54.60;;;12.44;58.46;98733.97;5054574;28;19925;-34
2023/12/21 08:58:35;;;;;;;;;;;12.30;54.70;;;12.43;58.36;98732.19;5055035;28;20024;-34
2023/12/21 09:01:05;;;;;;;;;;;12.30;54.50;;;12.43;58.04;98712.09;5055042;28;19925;-34
2023/12/21 09:03:33;;;;;;;;;;;12.30;54.60;;;12.43;57.99;98709.59;5054434;28;19924;-34
2023/12/21 09:06:02;;;;;;;;;;;12.30;54.60;;;12.44;57.99;98688.75;5053525;28;19924;-33
2023/12/21 09:08:30;;;;;;;;;;;12.30;54.40;;;12.45;57.30;98695.56;5055060;28;19979;-34
2023/12/21 09:10:58;;;;;;;;;;;12.30;54.40;;;12.48;58.31;98680.75;5054859;28;20011;-34
2023/12/21 09:13:26;;;;;;;;;;;12.30;54.40;;;12.49;57.80;98662.41;5054465;28;20381;-34
2023/12/21 09:15:54;;;;;;;;;;;12.30;54.40;;;12.53;57.82;98664.44;5053936;28;19971;-33
2023/12/21 09:18:23;;;;;;;;;;;12.30;54.80;;;12.47;57.67;98633.75;5054361;28;20019;-34
2023/12/21 09:20:51;;;;;;;;;;;12.30;54.20;;;12.58;57.19;98627.22;5042619;28;20012;-35
2023/12/21 09:23:19;;;;;;;;;;;12.30;54.40;;;12.58;57.59;98632.22;5034243;28;20427;-34
2023/12/21 09:25:47;;;;;;;;;;;12.40;54.40;;;12.60;57.90;98626.59;5033594;28;19925;-34
2023/12/21 09:28:19;;;;;;;;;;;12.40;54.40;;;12.63;57.62;98618.44;5041547;28;20376;-35
2023/12/21 09:30:47;;;;;;;;;;;12.40;54.50;;;12.63;57.10;98606.78;5053803;28;20396;-35
2023/12/21 09:33:15;;;;;;;;;;;12.40;54.50;;;12.65;57.59;98605.25;5054303;28;19924;-35
2023/12/21 09:35:44;;;;;;;;;;;12.40;54.30;;;12.66;57.89;98596.09;5053106;28;19978;-35
2023/12/21 09:38:12;;;;;;;;;;;12.40;54.40;;;12.68;57.60;98595.50;5054188;28;19931;-35
2023/12/21 09:40:40;;;;;;;;;;;12.40;54.30;;;12.69;57.56;98587.22;5053960;28;19968;-35
2023/12/21 09:43:08;;;;;;;;;;;12.50;54.50;;;12.73;57.41;98574.16;5053742;28;19925;-35
2023/12/21 09:45:42;;;;;;;;;;;12.50;54.30;;;12.76;57.13;98574.44;5053266;28;19925;-35
2023/12/21 09:48:10;;;;;;;;;;;12.50;54.20;;;12.79;57.38;98566.28;5053695;28;20392;-35
2023/12/21 09:50:39;;;;;;;;;;;12.60;54.20;;;12.82;56.65;98559.91;5053733;28;19951;-35
2023/12/21 09:53:08;;;;;;;;;;;12.60;54.00;;;12.83;57.49;98549.13;5053876;28;19970;-35
2023/12/21 09:55:36;;;;;;;;;;;12.60;54.00;;;12.84;56.44;98553.38;5053551;28;19924;-35
2023/12/21 09:58:04;;;;;;;;;;;12.70;54.10;;;12.85;56.73;98550.09;5053286;28;19951;-35
2023/12/21 10:00:32;;;;;;;;;;;12.70;53.90;;;12.85;56.79;98555.13;5053393;28;19929;-35
2023/12/21 10:03:00;;;;;;;;;;;12.70;53.90;;;12.85;56.71;98540.06;5053418;28;19968;-35
2023/12/21 10:05:28;;;;;;;;;;;12.70;53.80;;;12.80;57.28;98541.28;5082627;22;19931;-36
2023/12/21 10:07:56;;;;;;;;;;;12.70;53.70;;;12.83;57.19;98533.16;5064360;28;19924;-36
2023/12/21 10:10:25;;;;;;;;;;;12.70;53.80;;;12.83;57.14;98536.56;5073555;28;19933;-36
2023/12/21 10:12:53;;;;;;;;;;;12.70;53.80;;;12.82;56.38;98534.78;5073820;28;19931;-36
2023/12/21 10:15:21;;;;;;;;;;;12.70;53.80;;;12.81;57.17;98520.44;5073448;28;19929;-35
2023/12/21 10:17:49;;;;;;;;;;;12.60;53.90;;;12.78;57.25;98522.69;5071897;28;19932;-36
2023/12/21 10:20:18;;;;;;;;;;;12.60;53.90;;;12.75;56.92;98507.34;5073519;28;19978;-36
2023/12/21 10:22:46;;;;;;;;;;;12.60;54.10;;;12.71;57.15;98490.22;5072790;28;19982;-37
2023/12/21 10:25:15;;;;;;;;;;;12.60;54.20;;;12.67;57.72;98503.28;5073303;28;20379;-35
2023/12/21 10:27:52;;;;;;;;;;;12.50;54.30;;;12.65;57.44;98499.75;5072092;28;20419;-34
2023/12/21 10:30:22;;;;;;;;;;;12.50;54.30;;;12.61;57.49;98487.69;5072860;28;20358;-34
2023/12/21 10:32:55;;;;;;;;;;;12.50;54.50;;;12.59;58.13;98494.19;5072590;28;19932;-35
2023/12/21 10:35:25;;;;;;;;;;;12.40;54.50;;;12.57;57.52;98485.66;5072508;28;19939;-35
2023/12/21 10:37:53;;;;;;;;;;;12.40;54.70;;;12.54;58.94;98470.31;5071540;28;19925;-35
2023/12/21 10:40:22;;;;;;;;;;;12.40;54.80;;;12.52;58.49;98474.31;5072877;28;19925;-34
2023/12/21 10:42:52;;;;;;;;;;;12.40;55.00;;;12.49;58.45;98461.50;5073115;28;20027;-35
2023/12/21 10:45:21;;;;;;;;;;;12.30;55.00;;;12.48;57.86;98464.75;5076116;28;19932;-36
2023/12/21 10:48:06;;;;;;;;;;;12.30;55.10;;;12.48;58.50;98464.75;5064832;28;20344;-35
2023/12/21 10:50:34;;;;;;;;;;;12.30;55.40;;;12.46;59.14;98436.09;5072944;28;19932;-36
2023/12/21 10:53:03;;;;;;;;;;;12.30;55.30;;;12.46;59.04;98453.69;5072551;28;19935;-35
2023/12/21 10:55:31;;;;;;;;;;;12.30;55.40;;;12.45;59.30;98446.91;5072498;28;19963;-35
2023/12/21 10:58:01;;;;;;;;;;;12.30;55.40;;;12.45;58.53;98444.41;5063836;28;19925;-35
2023/12/21 11:00:29;;;;;;;;;;;12.30;55.30;;;12.46;58.61;98426.06;5072458;28;19976;-36
2023/12/21 11:02:57;;;;;;;;;;;12.30;55.20;;;12.46;58.47;98416.00;5064501;28;19932;-36
2023/12/21 11:05:26;;;;;;;;;;;12.30;55.20;;;12.48;58.88;98415.41;5065755;28;19935;-36
2023/12/21 11:07:55;;;;;;;;;;;12.30;55.00;;;12.50;58.74;98408.00;5071614;28;19978;-35
2023/12/21 11:10:24;;;;;;;;;;;12.30;55.20;;;12.52;58.54;98409.00;5072690;28;19928;-36
2023/12/21 11:12:52;;;;;;;;;;;12.30;54.90;;;12.55;58.48;98401.75;5072248;28;19940;-35
2023/12/21 11:15:21;;;;;;;;;;;12.30;55.00;;;12.56;58.03;98413.56;5072357;28;20443;-36
2023/12/21 11:17:50;;;;;;;;;;;12.30;54.80;;;12.59;58.13;98391.19;5071795;28;19978;-36
2023/12/21 11:20:23;;;;;;;;;;;12.40;54.90;;;12.61;58.42;98382.16;5072824;28;19924;-36
2023/12/21 11:23:08;;;;;;;;;;;12.40;54.90;;;12.61;58.38;98397.25;5072151;28;19928;-35